Time;durP1;ratioP1;P1;durP2;ratioP2;P2;SDS_P1;SDS_P2;PMS_P1;PMS_P2;Temp;Humidity;BMP_temperature;BMP_pressure;BME280_temperature;BME280_humidity;BME280_pressure;Samples;Min_cycle;Max_cycle;Signal;HPM_P1;HPM_P2
2022/02/13 00:00:24;;;;;;;8.67;7.70;;;8.60;46.90;;;;;;5045610;28;20447;-40
2022/02/13 00:02:50;;;;;;;8.03;7.23;;;8.50;47.30;;;;;;5037395;28;20445;-40
2022/02/13 00:05:16;;;;;;;10.63;7.53;;;8.50;47.30;;;;;;5036338;28;20621;-40
2022/02/13 00:07:41;;;;;;;10.87;8.30;;;8.40;47.70;;;;;;5035662;28;20222;-40
2022/02/13 00:10:10;;;;;;;8.90;7.30;;;8.20;47.90;;;;;;5037519;28;20305;-40
2022/02/13 00:12:36;;;;;;;11.60;7.03;;;8.20;48.60;;;;;;5044077;28;20201;-40
2022/02/13 00:15:03;;;;;;;9.73;6.97;;;8.30;48.30;;;;;;5039577;28;20443;-40
2022/02/13 00:17:29;;;;;;;8.50;6.70;;;8.50;47.80;;;;;;5039442;28;20450;-40
2022/02/13 00:19:55;;;;;;;9.97;7.60;;;8.50;47.20;;;;;;5040079;28;21105;-40
2022/02/13 00:22:21;;;;;;;8.70;7.73;;;8.60;47.30;;;;;;5045228;28;20194;-40
2022/02/13 00:24:47;;;;;;;9.17;6.97;;;8.70;47.00;;;;;;5040426;28;20225;-40
2022/02/13 00:27:13;;;;;;;9.53;7.37;;;8.60;46.60;;;;;;5040298;28;20458;-40
2022/02/13 00:29:39;;;;;;;7.10;6.40;;;8.60;46.80;;;;;;5036791;28;20989;-40
2022/02/13 00:32:05;;;;;;;9.43;7.20;;;8.60;46.60;;;;;;5038394;28;20529;-40
2022/02/13 00:34:31;;;;;;;8.37;7.27;;;8.60;48.30;;;;;;5033418;28;20192;-40
2022/02/13 00:36:58;;;;;;;11.07;8.43;;;8.50;46.40;;;;;;5044893;28;20451;-40
2022/02/13 00:39:24;;;;;;;11.73;7.03;;;8.30;46.10;;;;;;5042085;28;20439;-40
2022/02/13 00:41:49;;;;;;;10.50;7.60;;;8.10;46.30;;;;;;5038728;28;20471;-40
2022/02/13 00:44:15;;;;;;;11.53;8.10;;;7.60;47.20;;;;;;5041147;28;20345;-40
2022/02/13 00:46:41;;;;;;;9.47;7.47;;;7.30;48.10;;;;;;5037526;28;20200;-40
2022/02/13 00:49:07;;;;;;;12.93;8.33;;;7.10;48.80;;;;;;5042710;28;20513;-40
2022/02/13 00:51:33;;;;;;;11.43;8.10;;;7.10;48.90;;;;;;5040561;28;20466;-40
2022/02/13 00:53:59;;;;;;;9.83;8.17;;;7.10;48.90;;;;;;5041797;28;20212;-40
2022/02/13 00:56:25;;;;;;;11.40;7.40;;;7.00;49.10;;;;;;5045521;28;20656;-40
2022/02/13 00:58:51;;;;;;;9.00;7.30;;;6.90;49.40;;;;;;5035122;28;20478;-40
2022/02/13 01:01:18;;;;;;;11.77;8.10;;;6.50;50.00;;;;;;5038991;28;20787;-40
2022/02/13 01:03:43;;;;;;;11.60;8.10;;;6.30;50.90;;;;;;5040631;28;20521;-40
2022/02/13 01:06:09;;;;;;;9.90;7.27;;;6.10;51.30;;;;;;5046285;28;20930;-40
2022/02/13 01:08:35;;;;;;;10.77;7.03;;;6.00;51.60;;;;;;5039310;28;20192;-40
2022/02/13 01:11:00;;;;;;;8.20;6.73;;;6.00;51.60;;;;;;5043848;28;20203;-40
2022/02/13 01:13:27;;;;;;;12.40;6.50;;;5.50;52.00;;;;;;5042333;28;20868;-40
2022/02/13 01:15:53;;;;;;;8.93;6.90;;;5.10;53.30;;;;;;5039847;28;20203;-40
2022/02/13 01:18:19;;;;;;;10.53;7.30;;;5.10;53.70;;;;;;5034799;28;20909;-40
2022/02/13 01:20:45;;;;;;;8.40;6.17;;;5.10;53.90;;;;;;5041232;28;20222;-40
2022/02/13 01:23:11;;;;;;;11.70;6.93;;;4.80;54.30;;;;;;5035656;28;20849;-40
2022/02/13 01:25:36;;;;;;;10.87;7.10;;;4.80;54.80;;;;;;5031860;28;20257;-40
2022/02/13 01:28:03;;;;;;;7.90;7.10;;;4.80;54.90;;;;;;5038834;28;20761;-40
2022/02/13 01:30:28;;;;;;;9.20;6.30;;;4.90;54.90;;;;;;5036469;28;20252;-40
2022/02/13 01:32:54;;;;;;;11.93;6.97;;;5.00;54.40;;;;;;5036042;28;20867;-40
2022/02/13 01:35:20;;;;;;;10.40;6.90;;;4.70;54.40;;;;;;5034853;28;20228;-40
2022/02/13 01:37:45;;;;;;;11.40;6.47;;;4.60;55.00;;;;;;5037397;28;20205;-39
2022/02/13 01:40:11;;;;;;;11.70;6.13;;;4.30;55.50;;;;;;5036862;28;20224;-40
2022/02/13 01:42:37;;;;;;;9.73;6.23;;;4.20;56.20;;;;;;5032874;28;20251;-40
2022/02/13 01:45:04;;;;;;;6.43;5.80;;;4.30;56.20;;;;;;5041981;28;20491;-40
2022/02/13 01:47:30;;;;;;;7.67;6.17;;;4.30;55.80;;;;;;5037311;28;22603;-40
2022/02/13 01:49:57;;;;;;;8.63;6.20;;;4.40;55.70;;;;;;5039684;28;20472;-40
2022/02/13 01:52:23;;;;;;;8.10;5.77;;;4.30;56.20;;;;;;5040161;28;20687;-39
2022/02/13 01:54:48;;;;;;;8.00;6.10;;;4.40;56.00;;;;;;5039984;28;20448;-40
2022/02/13 01:57:14;;;;;;;8.53;6.70;;;4.60;55.70;;;;;;5031832;28;20990;-40
2022/02/13 01:59:40;;;;;;;8.77;7.17;;;4.60;55.20;;;;;;5039672;28;20196;-40
2022/02/13 02:02:05;;;;;;;11.97;6.90;;;4.50;55.70;;;;;;5037890;28;20275;-40
2022/02/13 02:04:31;;;;;;;10.37;6.90;;;4.70;55.80;;;;;;5046623;28;20216;-40
2022/02/13 02:06:57;;;;;;;8.60;7.10;;;4.90;55.10;;;;;;5033929;28;20209;-40
2022/02/13 02:09:26;;;;;;;10.27;7.10;;;5.00;54.50;;;;;;5034068;28;20647;-40
2022/02/13 02:11:52;;;;;;;9.27;7.57;;;4.90;54.40;;;;;;5035321;28;20200;-40
2022/02/13 02:14:18;;;;;;;9.37;6.43;;;4.80;54.50;;;;;;5035447;28;20474;-40
2022/02/13 02:16:45;;;;;;;7.87;5.90;;;5.00;54.50;;;;;;5037791;28;20475;-40
2022/02/13 02:19:11;;;;;;;7.87;6.03;;;5.20;54.10;;;;;;5040606;28;20193;-40
2022/02/13 02:21:41;;;;;;;10.77;7.00;;;5.10;54.00;;;;;;5034873;28;20451;-40
2022/02/13 02:24:11;;;;;;;11.20;7.33;;;5.20;53.90;;;;;;5041632;28;20573;-40
2022/02/13 02:26:36;;;;;;;10.27;7.37;;;5.20;53.60;;;;;;5037358;28;20439;-40
2022/02/13 02:29:02;;;;;;;7.37;6.47;;;5.20;53.50;;;;;;5042233;28;20488;-40
2022/02/13 02:31:28;;;;;;;8.50;7.70;;;5.10;53.50;;;;;;5040571;28;20703;-40
2022/02/13 02:33:53;;;;;;;9.77;6.20;;;5.10;53.80;;;;;;5046975;28;20667;-40
2022/02/13 02:36:19;;;;;;;9.30;7.00;;;5.10;53.60;;;;;;5045025;28;20627;-40
2022/02/13 02:38:46;;;;;;;7.80;6.40;;;4.80;54.30;;;;;;5041104;28;20648;-40
2022/02/13 02:41:13;;;;;;;7.17;6.47;;;4.50;55.20;;;;;;5044344;28;20903;-40
2022/02/13 02:43:39;;;;;;;8.80;6.83;;;4.70;55.20;;;;;;5041185;28;20484;-40
2022/02/13 02:46:05;;;;;;;9.37;7.10;;;5.00;54.70;;;;;;5037483;28;22080;-40
2022/02/13 02:48:31;;;;;;;7.70;6.30;;;5.10;54.10;;;;;;5038551;28;20457;-39
2022/02/13 02:50:57;;;;;;;6.90;6.20;;;5.10;54.00;;;;;;5034668;28;20457;-40
2022/02/13 02:53:22;;;;;;;8.13;6.47;;;4.90;54.40;;;;;;5039011;28;20442;-39
2022/02/13 02:55:48;;;;;;;10.40;6.30;;;4.90;54.30;;;;;;5035026;28;20240;-40
2022/02/13 02:58:14;;;;;;;7.17;6.47;;;4.90;54.90;;;;;;5039475;28;20197;-39
2022/02/13 03:00:40;;;;;;;8.30;6.30;;;5.00;54.20;;;;;;5044552;28;20196;-40
2022/02/13 03:03:05;;;;;;;11.53;6.80;;;5.10;54.00;;;;;;5038767;28;20787;-40
2022/02/13 03:05:31;;;;;;;7.57;5.97;;;4.70;54.40;;;;;;5047260;28;20660;-40
2022/02/13 03:07:57;;;;;;;9.53;6.60;;;4.40;55.00;;;;;;5043643;28;20656;-40
2022/02/13 03:10:23;;;;;;;15.10;6.50;;;4.20;56.00;;;;;;5038600;28;20197;-40
2022/02/13 03:12:48;;;;;;;10.50;6.80;;;4.30;56.00;;;;;;5045374;28;20189;-40
2022/02/13 03:15:14;;;;;;;6.93;6.20;;;4.40;55.70;;;;;;5046431;28;20239;-40
2022/02/13 03:17:39;;;;;;;10.57;6.97;;;4.30;55.50;;;;;;5040823;28;20199;-40
2022/02/13 03:20:05;;;;;;;9.20;6.00;;;4.40;55.90;;;;;;5042281;28;22244;-40
2022/02/13 03:22:31;;;;;;;9.17;6.47;;;4.40;55.60;;;;;;5039668;28;20203;-40
2022/02/13 03:24:59;;;;;;;7.10;5.43;;;4.70;55.20;;;;;;5046686;28;20525;-40
2022/02/13 03:27:26;;;;;;;7.83;6.23;;;4.80;54.70;;;;;;5046420;28;20603;-40
2022/02/13 03:29:51;;;;;;;10.50;6.10;;;4.40;55.10;;;;;;5042389;28;20499;-40
2022/02/13 03:32:17;;;;;;;8.47;6.50;;;4.40;55.60;;;;;;5042128;28;20917;-40
2022/02/13 03:34:42;;;;;;;6.13;5.33;;;4.50;55.40;;;;;;5040195;28;20197;-40
2022/02/13 03:37:08;;;;;;;6.93;5.60;;;4.60;55.20;;;;;;5043682;28;20197;-40
2022/02/13 03:39:33;;;;;;;9.30;6.23;;;4.70;54.80;;;;;;5044094;28;20235;-40
2022/02/13 03:41:59;;;;;;;6.90;5.83;;;4.50;55.20;;;;;;5039433;28;20192;-40
2022/02/13 03:44:25;;;;;;;6.70;5.50;;;4.60;55.30;;;;;;5046661;28;20231;-40
2022/02/13 03:46:50;;;;;;;9.10;5.33;;;4.70;55.00;;;;;;5037123;28;20200;-40
2022/02/13 03:49:16;;;;;;;6.87;5.47;;;4.80;54.90;;;;;;5042677;28;20259;-40
2022/02/13 03:51:42;;;;;;;10.00;6.17;;;4.90;54.50;;;;;;5048610;28;20188;-40
2022/02/13 03:54:08;;;;;;;10.87;5.90;;;5.00;54.30;;;;;;5045123;28;20531;-40
2022/02/13 03:56:34;;;;;;;8.87;6.13;;;4.80;54.00;;;;;;5045509;28;20212;-40
2022/02/13 03:58:59;;;;;;;9.40;5.47;;;4.80;54.50;;;;;;5044437;28;20443;-40
2022/02/13 04:01:25;;;;;;;8.03;6.10;;;4.90;54.60;;;;;;5047909;28;20568;-40
2022/02/13 04:03:50;;;;;;;8.20;6.27;;;4.80;54.10;;;;;;5049167;28;20303;-40
2022/02/13 04:06:16;;;;;;;7.70;5.67;;;4.80;54.30;;;;;;5036046;28;20303;-40
2022/02/13 04:08:42;;;;;;;7.57;5.70;;;4.60;54.80;;;;;;5038757;28;20200;-40
2022/02/13 04:11:08;;;;;;;7.40;5.93;;;4.60;54.80;;;;;;5043490;28;20451;-40
2022/02/13 04:13:33;;;;;;;6.20;5.60;;;4.50;55.30;;;;;;5036988;28;20259;-40
2022/02/13 04:15:59;;;;;;;6.33;5.70;;;4.30;55.40;;;;;;5047833;28;20435;-40
2022/02/13 04:18:25;;;;;;;8.80;5.93;;;4.40;55.50;;;;;;5035580;28;20280;-40
2022/02/13 04:20:50;;;;;;;7.80;6.10;;;4.40;55.50;;;;;;5045228;28;20443;-40
2022/02/13 04:23:16;;;;;;;6.67;5.63;;;4.60;55.20;;;;;;5046782;28;20294;-40
2022/02/13 04:25:42;;;;;;;7.43;5.00;;;4.50;55.10;;;;;;5048749;28;20193;-40
2022/02/13 04:28:07;;;;;;;5.77;4.83;;;4.40;55.30;;;;;;5045684;28;20578;-40
2022/02/13 04:30:33;;;;;;;9.47;6.17;;;4.40;55.60;;;;;;5048070;28;20228;-40
2022/02/13 04:32:59;;;;;;;7.40;5.80;;;4.50;55.40;;;;;;5045122;28;20216;-40
2022/02/13 04:35:26;;;;;;;9.90;5.57;;;4.60;55.20;;;;;;5040562;28;20192;-40
2022/02/13 04:37:52;;;;;;;7.03;5.87;;;4.50;55.40;;;;;;5043898;28;20806;-40
2022/02/13 04:40:19;;;;;;;7.93;6.03;;;4.60;55.80;;;;;;5049235;28;20447;-40
2022/02/13 04:42:45;;;;;;;7.17;5.53;;;4.50;55.50;;;;;;5043268;28;20465;-40
2022/02/13 04:45:10;;;;;;;8.50;5.87;;;4.70;55.30;;;;;;5040262;28;20480;-40
2022/02/13 04:47:36;;;;;;;6.60;6.00;;;4.80;54.70;;;;;;5043765;28;20449;-40
2022/02/13 04:50:02;;;;;;;9.07;6.40;;;4.70;54.60;;;;;;5048189;28;20184;-40
2022/02/13 04:52:28;;;;;;;7.23;5.77;;;4.80;54.60;;;;;;5041827;28;20202;-40
2022/02/13 04:54:53;;;;;;;6.23;5.00;;;4.90;54.30;;;;;;5042682;28;20455;-40
2022/02/13 04:57:19;;;;;;;9.67;5.67;;;4.90;54.50;;;;;;5043948;28;20193;-40
2022/02/13 04:59:45;;;;;;;9.73;6.00;;;4.90;54.50;;;;;;5038584;28;20197;-40
2022/02/13 05:02:10;;;;;;;7.83;5.23;;;5.10;54.30;;;;;;5038812;28;20307;-40
2022/02/13 05:04:36;;;;;;;6.10;4.77;;;5.10;54.60;;;;;;5042113;28;20224;-40
2022/02/13 05:07:02;;;;;;;6.40;4.80;;;5.10;53.90;;;;;;5042324;28;20193;-40
2022/02/13 05:09:28;;;;;;;5.80;5.17;;;5.00;53.90;;;;;;5042424;28;22147;-40
2022/02/13 05:11:55;;;;;;;6.87;6.17;;;5.00;53.70;;;;;;5046884;28;20508;-40
2022/02/13 05:14:21;;;;;;;5.97;4.87;;;5.20;53.90;;;;;;5042781;28;20200;-40
2022/02/13 05:16:46;;;;;;;8.70;6.47;;;4.90;54.60;;;;;;5039548;28;20444;-40
2022/02/13 05:19:13;;;;;;;7.20;5.70;;;4.80;54.30;;;;;;5031036;28;20664;-40
2022/02/13 05:21:38;;;;;;;7.90;5.30;;;4.80;54.30;;;;;;5041644;28;20197;-40
2022/02/13 05:24:04;;;;;;;6.40;5.00;;;4.70;54.50;;;;;;5036332;28;20497;-40
2022/02/13 05:26:30;;;;;;;6.07;5.20;;;4.70;54.40;;;;;;5046736;28;20659;-40
2022/02/13 05:28:56;;;;;;;9.57;6.43;;;4.50;54.80;;;;;;5035126;28;20201;-40
2022/02/13 05:31:21;;;;;;;7.57;5.73;;;4.30;55.20;;;;;;5041495;28;20240;-40
2022/02/13 05:33:47;;;;;;;11.00;6.53;;;4.00;55.50;;;;;;5035506;28;20443;-40
2022/02/13 05:36:13;;;;;;;6.63;5.53;;;4.20;56.10;;;;;;5038795;28;20189;-40
2022/02/13 05:38:38;;;;;;;8.70;5.77;;;4.30;55.70;;;;;;5034994;28;20217;-40
2022/02/13 05:41:04;;;;;;;6.43;5.33;;;4.40;55.30;;;;;;5043254;28;20277;-40
2022/02/13 05:43:29;;;;;;;7.33;6.27;;;4.30;55.40;;;;;;5047699;28;20698;-40
2022/02/13 05:45:56;;;;;;;7.17;5.40;;;4.30;55.50;;;;;;5041817;28;20198;-40
2022/02/13 05:48:24;;;;;;;8.30;5.00;;;4.20;55.40;;;;;;5040577;28;20671;-40
2022/02/13 05:50:51;;;;;;;7.60;5.40;;;4.10;55.80;;;;;;5037914;28;20450;-40
2022/02/13 05:53:16;;;;;;;5.20;4.70;;;4.00;56.10;;;;;;5046116;28;20969;-40
2022/02/13 05:55:42;;;;;;;7.07;5.17;;;4.10;56.20;;;;;;5031232;28;20443;-40
2022/02/13 05:58:07;;;;;;;6.30;4.97;;;4.00;56.20;;;;;;5039685;28;20207;-40
2022/02/13 06:00:33;;;;;;;7.73;6.00;;;4.00;56.20;;;;;;5036338;28;20307;-40
2022/02/13 06:02:58;;;;;;;8.83;5.70;;;3.90;56.40;;;;;;5040832;28;20567;-40
2022/02/13 06:05:24;;;;;;;6.20;5.10;;;3.70;56.80;;;;;;5043697;28;20240;-40
2022/02/13 06:07:50;;;;;;;5.53;4.50;;;3.70;57.10;;;;;;5049968;28;20191;-40
2022/02/13 06:10:15;;;;;;;11.97;5.63;;;3.90;56.80;;;;;;5047823;28;20593;-40
2022/02/13 06:12:41;;;;;;;8.03;4.87;;;3.80;57.70;;;;;;5038379;28;20196;-40
2022/02/13 06:15:09;;;;;;;6.80;5.83;;;3.90;56.90;;;;;;5042923;28;20232;-40
2022/02/13 06:17:35;;;;;;;6.97;5.40;;;4.00;57.00;;;;;;5039018;28;20449;-40
2022/02/13 06:20:01;;;;;;;9.50;5.63;;;3.90;56.70;;;;;;5041878;28;20435;-40
2022/02/13 06:22:26;;;;;;;5.20;4.70;;;4.00;56.70;;;;;;5040424;28;20675;-40
2022/02/13 06:24:52;;;;;;;5.87;4.60;;;4.10;56.80;;;;;;5044752;28;20232;-40
2022/02/13 06:27:18;;;;;;;8.13;5.30;;;4.10;56.40;;;;;;5043502;28;20193;-40
2022/02/13 06:29:43;;;;;;;10.00;6.47;;;4.10;56.60;;;;;;5040769;28;20749;-41
2022/02/13 06:32:09;;;;;;;5.17;4.50;;;4.00;56.70;;;;;;5038783;28;20275;-40
2022/02/13 06:34:35;;;;;;;6.67;5.13;;;4.00;56.50;;;;;;5034074;28;20648;-40
2022/02/13 06:37:00;;;;;;;6.87;4.90;;;4.20;58.20;;;;;;5039247;28;22451;-40
2022/02/13 06:39:26;;;;;;;6.70;5.80;;;4.70;59.40;;;;;;5050689;28;20188;-40
2022/02/13 06:41:51;;;;;;;5.90;4.60;;;5.10;60.10;;;;;;5052137;28;20185;-40
2022/02/13 06:44:17;;;;;;;7.27;5.97;;;5.20;57.70;;;;;;5040371;28;20675;-40
2022/02/13 06:46:42;;;;;;;6.40;5.40;;;5.20;57.10;;;;;;5040239;28;20193;-40
2022/02/13 06:49:08;;;;;;;6.43;5.47;;;5.50;56.90;;;;;;5034169;28;20196;-40
2022/02/13 06:51:34;;;;;;;7.07;5.30;;;5.60;55.30;;;;;;5041749;28;20196;-40
2022/02/13 06:53:59;;;;;;;6.00;5.40;;;5.60;55.70;;;;;;5040372;28;20197;-40
2022/02/13 06:56:25;;;;;;;9.67;5.93;;;5.70;55.10;;;;;;5043178;28;20209;-40
2022/02/13 06:58:50;;;;;;;6.57;5.37;;;5.90;54.70;;;;;;5045961;28;20666;-40
2022/02/13 07:01:16;;;;;;;7.13;4.80;;;5.90;54.20;;;;;;5043197;28;20196;-40
2022/02/13 07:03:42;;;;;;;8.07;5.90;;;5.80;53.70;;;;;;5049260;28;22396;-40
2022/02/13 07:06:08;;;;;;;6.40;5.27;;;5.70;54.10;;;;;;5052711;28;20204;-41
2022/02/13 07:08:34;;;;;;;7.30;5.40;;;6.20;54.20;;;;;;5050370;28;20427;-40
2022/02/13 07:11:00;;;;;;;9.17;5.37;;;6.30;52.70;;;;;;5052690;28;20707;-40
2022/02/13 07:13:25;;;;;;;6.40;5.10;;;6.30;52.80;;;;;;5038343;28;20431;-40
2022/02/13 07:15:52;;;;;;;6.00;5.07;;;6.70;53.00;;;;;;5048457;28;20636;-40
2022/02/13 07:18:17;;;;;;;5.43;4.93;;;7.10;52.00;;;;;;5047558;28;20208;-40
2022/02/13 07:20:43;;;;;;;5.77;5.00;;;7.10;50.90;;;;;;5042757;28;20444;-40
2022/02/13 07:23:09;;;;;;;5.27;4.60;;;7.30;51.10;;;;;;5049613;28;20205;-40
2022/02/13 07:25:34;;;;;;;6.57;5.40;;;7.60;50.50;;;;;;5052047;28;20299;-40
2022/02/13 07:28:58;;;;;;;6.67;5.40;;;7.90;49.90;;;;;;5044715;28;20197;-40
2022/02/13 07:30:46;;;;;;;7.53;5.13;;;7.60;49.30;;;;;;5047689;28;20232;-40
2022/02/13 07:33:11;;;;;;;8.43;5.50;;;7.70;50.00;;;;;;5050474;28;20496;-40
2022/02/13 07:35:40;;;;;;;8.00;5.73;;;7.70;49.80;;;;;;5051953;28;20200;-40
2022/02/13 07:38:06;;;;;;;6.23;4.77;;;7.40;50.30;;;;;;5045428;28;20196;-40
2022/02/13 07:40:32;;;;;;;8.07;5.33;;;7.50;50.80;;;;;;5044398;28;20435;-40
2022/02/13 07:42:57;;;;;;;6.43;5.47;;;7.70;50.90;;;;;;5037351;28;20432;-40
2022/02/13 07:45:23;;;;;;;9.23;4.90;;;8.00;50.50;;;;;;5047160;28;20225;-40
2022/02/13 07:47:49;;;;;;;5.73;4.67;;;8.30;50.00;;;;;;5048974;28;20626;-40
2022/02/13 07:50:14;;;;;;;6.27;5.20;;;8.50;49.90;;;;;;5049121;28;20193;-40
2022/02/13 07:52:40;;;;;;;6.57;5.20;;;8.80;49.10;;;;;;5051337;28;20783;-40
2022/02/13 07:55:05;;;;;;;5.53;4.90;;;8.70;48.80;;;;;;5048530;28;20297;-40
2022/02/13 07:57:31;;;;;;;5.87;5.27;;;8.50;48.80;;;;;;5047745;28;20188;-40
2022/02/13 07:59:57;;;;;;;7.33;5.30;;;8.40;49.10;;;;;;5052426;28;20196;-40
2022/02/13 08:02:22;;;;;;;7.20;4.70;;;8.50;49.10;;;;;;5041848;28;20193;-40
2022/02/13 08:04:48;;;;;;;8.03;5.73;;;8.80;49.30;;;;;;5044494;28;20228;-40
2022/02/13 08:07:14;;;;;;;6.13;5.53;;;8.80;49.10;;;;;;5045339;28;20219;-40
2022/02/13 08:09:39;;;;;;;6.47;5.37;;;8.90;48.90;;;;;;5041117;28;20192;-40
2022/02/13 08:12:05;;;;;;;7.17;5.40;;;8.90;48.90;;;;;;5049987;28;20255;-40
2022/02/13 08:14:32;;;;;;;7.70;5.00;;;9.10;48.50;;;;;;5047891;28;20283;-40
2022/02/13 08:16:57;;;;;;;9.17;5.10;;;9.30;48.40;;;;;;5042184;28;20812;-40
2022/02/13 08:19:23;;;;;;;7.87;5.40;;;9.60;47.80;;;;;;5048964;28;20435;-40
2022/02/13 08:21:48;;;;;;;6.40;4.83;;;9.70;47.30;;;;;;5050456;28;20631;-40
2022/02/13 08:24:14;;;;;;;9.57;5.07;;;9.70;47.80;;;;;;5047503;28;20248;-40
2022/02/13 08:26:39;;;;;;;7.90;5.87;;;9.60;47.90;;;;;;5040781;28;20197;-40
2022/02/13 08:29:06;;;;;;;6.40;5.80;;;9.70;47.50;;;;;;5048169;28;20639;-40
2022/02/13 08:31:32;;;;;;;7.03;6.13;;;9.70;47.50;;;;;;5045760;28;20237;-40
2022/02/13 08:33:58;;;;;;;8.50;5.80;;;9.80;47.50;;;;;;5050705;28;20435;-40
2022/02/13 08:36:24;;;;;;;5.03;4.63;;;9.80;47.40;;;;;;5049669;28;20428;-40
2022/02/13 08:38:50;;;;;;;6.60;5.43;;;9.70;47.70;;;;;;5041081;28;20232;-40
2022/02/13 08:41:16;;;;;;;7.57;5.70;;;9.80;47.80;;;;;;5047657;28;20912;-40
2022/02/13 08:43:41;;;;;;;7.37;6.00;;;9.40;47.90;;;;;;5044228;28;20477;-40
2022/02/13 08:46:08;;;;;;;9.60;6.60;;;9.40;48.70;;;;;;5050348;28;20660;-40
2022/02/13 08:48:33;;;;;;;7.00;5.50;;;9.50;48.70;;;;;;5050469;28;20242;-40
2022/02/13 08:50:59;;;;;;;8.50;6.30;;;9.50;48.80;;;;;;5050399;28;20435;-41
2022/02/13 08:53:25;;;;;;;8.90;6.43;;;9.60;48.50;;;;;;5039113;28;20196;-40
2022/02/13 08:55:50;;;;;;;11.30;7.07;;;9.70;48.50;;;;;;5036376;28;20196;-40
2022/02/13 08:58:19;;;;;;;6.37;5.77;;;9.90;48.40;;;;;;5039001;28;20291;-40
2022/02/13 09:00:44;;;;;;;8.50;6.67;;;10.00;47.30;;;;;;5036882;28;20192;-40
2022/02/13 09:03:10;;;;;;;6.43;5.17;;;10.20;47.40;;;;;;5038622;28;20514;-40
2022/02/13 09:05:36;;;;;;;7.67;5.50;;;10.20;47.00;;;;;;5037627;28;20590;-40
2022/02/13 09:08:02;;;;;;;7.47;5.20;;;10.30;47.00;;;;;;5036349;28;20201;-40
2022/02/13 09:10:28;;;;;;;8.87;5.67;;;10.40;46.80;;;;;;5046914;28;20203;-40
2022/02/13 09:12:54;;;;;;;6.23;5.60;;;10.50;46.80;;;;;;5046680;28;20827;-40
2022/02/13 09:15:20;;;;;;;7.00;6.27;;;10.60;47.30;;;;;;5041280;28;20439;-40
2022/02/13 09:17:46;;;;;;;6.43;5.83;;;10.70;47.10;;;;;;5042281;28;20683;-40
2022/02/13 09:20:12;;;;;;;8.80;6.30;;;10.80;47.00;;;;;;5039104;28;20563;-40
2022/02/13 09:22:38;;;;;;;10.70;7.50;;;11.00;47.10;;;;;;5040897;28;20205;-41
2022/02/13 09:25:04;;;;;;;10.13;8.23;;;11.10;46.70;;;;;;5046207;28;20486;-41
2022/02/13 09:27:29;;;;;;;10.00;9.00;;;11.30;46.60;;;;;;5040850;28;20438;-41
2022/02/13 09:29:55;;;;;;;11.47;8.37;;;11.50;46.20;;;;;;5036052;28;20470;-41
2022/02/13 09:32:21;;;;;;;8.63;7.13;;;11.50;45.50;;;;;;5038468;28;20200;-41
2022/02/13 09:34:47;;;;;;;10.70;8.10;;;11.40;45.90;;;;;;5035008;28;20201;-41
2022/02/13 09:37:12;;;;;;;10.60;7.23;;;11.60;45.90;;;;;;5040819;28;20438;-41
2022/02/13 09:39:38;;;;;;;9.10;7.40;;;11.90;45.60;;;;;;5047077;28;20195;-40
2022/02/13 09:42:05;;;;;;;11.87;8.57;;;12.30;45.00;;;;;;5040614;28;20528;-41
2022/02/13 09:44:31;;;;;;;8.13;7.30;;;12.60;44.20;;;;;;5040053;28;20225;-41
2022/02/13 09:46:57;;;;;;;11.77;7.20;;;12.80;43.80;;;;;;5042211;28;20526;-41
2022/02/13 09:49:22;;;;;;;10.90;8.00;;;13.00;43.50;;;;;;5044405;28;20907;-41
2022/02/13 09:51:48;;;;;;;10.57;8.07;;;13.20;43.20;;;;;;5046719;28;20197;-41
2022/02/13 09:54:14;;;;;;;8.10;7.13;;;13.30;43.20;;;;;;5040376;28;20192;-42
2022/02/13 09:56:40;;;;;;;9.40;7.60;;;13.50;43.10;;;;;;5040190;28;20431;-40
2022/02/13 09:59:09;;;;;;;11.90;5.93;;;13.80;43.00;;;;;;5043599;28;20466;-40
2022/02/13 10:01:41;;;;;;;7.90;6.17;;;14.00;42.50;;;;;;5047594;28;20212;-42
2022/02/13 10:04:10;;;;;;;6.17;5.50;;;14.10;41.90;;;;;;5046533;28;20833;-41
2022/02/13 10:06:36;;;;;;;6.13;5.53;;;14.20;41.80;;;;;;5042547;28;20420;-41
2022/02/13 10:09:04;;;;;;;9.23;6.33;;;14.20;40.90;;;;;;5041615;28;20435;-40
2022/02/13 10:11:35;;;;;;;7.17;6.20;;;14.30;41.80;;;;;;5044532;28;20467;-40
2022/02/13 10:14:03;;;;;;;8.20;6.40;;;14.50;41.80;;;;;;5042057;28;20531;-41
2022/02/13 10:16:37;;;;;;;9.23;5.90;;;14.80;41.60;;;;;;5043757;28;20454;-39
2022/02/13 10:19:10;;;;;;;6.27;5.67;;;14.70;40.80;;;;;;5040172;28;20447;-42
2022/02/13 10:21:40;;;;;;;7.30;5.70;;;14.80;40.10;;;;;;5036042;28;20475;-42
2022/02/13 10:24:12;;;;;;;13.10;6.27;;;14.80;40.10;;;;;;5042741;28;20482;-42
2022/02/13 10:26:38;;;;;;;6.63;5.47;;;15.00;40.30;;;;;;5038718;28;20497;-42
2022/02/13 10:29:04;;;;;;;8.37;5.87;;;15.10;40.40;;;;;;5041565;28;20439;-40
2022/02/13 10:31:30;;;;;;;9.97;6.47;;;15.30;39.80;;;;;;5046233;28;20268;-42
2022/02/13 10:33:59;;;;;;;7.70;5.60;;;15.30;39.30;;;;;;5033975;28;20247;-40
2022/02/13 10:36:26;;;;;;;9.53;5.50;;;15.40;40.10;;;;;;5036358;28;20470;-40
2022/02/13 10:38:52;;;;;;;6.40;5.27;;;15.70;39.90;;;;;;5045341;28;20816;-40
2022/02/13 10:41:28;;;;;;;9.20;5.77;;;15.90;39.30;;;;;;5041741;28;20443;-40
2022/02/13 10:44:06;;;;;;;8.53;6.20;;;15.70;38.60;;;;;;5039173;28;20497;-40
2022/02/13 10:46:37;;;;;;;7.37;6.00;;;15.90;39.00;;;;;;5035968;28;20814;-40
2022/02/13 10:49:05;;;;;;;10.00;5.77;;;16.10;38.90;;;;;;5039754;28;20439;-42
2022/02/13 10:51:31;;;;;;;10.93;6.10;;;16.20;39.10;;;;;;5041548;28;20478;-40
2022/02/13 10:53:58;;;;;;;7.13;5.83;;;16.50;39.00;;;;;;5046807;28;20443;-40
2022/02/13 10:56:23;;;;;;;6.60;4.90;;;16.60;38.40;;;;;;5041599;28;20442;-40
2022/02/13 10:58:55;;;;;;;5.50;4.70;;;16.80;38.80;;;;;;5042760;28;20846;-40
2022/02/13 11:01:22;;;;;;;7.33;5.40;;;16.90;36.80;;;;;;5046490;28;20258;-40
2022/02/13 11:03:48;;;;;;;9.43;5.20;;;17.10;36.00;;;;;;5038560;28;20475;-40
2022/02/13 11:06:15;;;;;;;9.13;5.27;;;17.30;36.90;;;;;;5033676;28;21034;-40
2022/02/13 11:08:56;;;;;;;12.73;5.57;;;17.30;35.70;;;;;;5048350;28;20442;-40
2022/02/13 11:11:22;;;;;;;8.57;5.60;;;17.30;35.60;;;;;;5040587;28;20497;-40
2022/02/13 11:13:48;;;;;;;8.47;5.53;;;17.40;35.50;;;;;;5046583;28;20857;-40
2022/02/13 11:16:26;;;;;;;7.83;5.47;;;17.50;35.70;;;;;;5049850;28;20573;-40
2022/02/13 11:18:54;;;;;;;6.50;4.97;;;17.60;35.60;;;;;;5049216;28;20938;-40
2022/02/13 11:21:22;;;;;;;6.10;5.40;;;17.60;35.10;;;;;;5044009;28;20832;-40
2022/02/13 11:23:52;;;;;;;13.37;5.60;;;17.70;34.80;;;;;;5039581;28;20467;-40
2022/02/13 11:26:34;;;;;;;10.63;6.63;;;17.90;34.60;;;;;;5039013;28;20534;-40
2022/02/13 11:29:00;;;;;;;5.27;4.77;;;18.00;34.00;;;;;;5044354;28;20849;-40
2022/02/13 11:31:28;;;;;;;7.00;5.10;;;18.10;34.50;;;;;;5037360;28;20482;-40
2022/02/13 11:33:54;;;;;;;8.47;5.13;;;18.10;32.80;;;;;;5047999;28;20838;-40
2022/02/13 11:36:20;;;;;;;8.57;5.33;;;18.10;34.10;;;;;;5041805;28;20904;-40
2022/02/13 11:38:51;;;;;;;9.40;4.83;;;18.00;34.10;;;;;;5050813;28;20450;-40
2022/02/13 11:41:40;;;;;;;7.03;4.17;;;18.30;34.30;;;;;;5051626;28;20475;-40
2022/02/13 11:44:06;;;;;;;8.77;5.10;;;18.40;33.90;;;;;;5046395;28;20463;-40
2022/02/13 11:46:40;;;;;;;6.17;4.73;;;18.80;33.60;;;;;;5050346;28;20513;-40
2022/02/13 11:49:15;;;;;;;6.87;5.30;;;18.90;33.20;;;;;;5033018;28;20427;-40
2022/02/13 11:51:47;;;;;;;5.90;4.57;;;19.10;33.20;;;;;;5051669;28;20851;-40
2022/02/13 11:54:37;;;;;;;7.20;4.67;;;19.20;33.10;;;;;;5044608;28;20539;-40
2022/02/13 11:57:06;;;;;;;10.53;5.30;;;19.40;33.10;;;;;;5049045;28;20430;-40
2022/02/13 12:00:06;;;;;;;5.90;4.80;;;19.30;32.00;;;;;;5032858;28;20436;-40
2022/02/13 12:02:41;;;;;;;7.57;5.30;;;19.50;32.60;;;;;;5045903;28;20443;-40
2022/02/13 12:05:06;;;;;;;11.47;5.03;;;19.20;30.50;;;;;;5045955;28;20489;-40
2022/02/13 12:07:38;;;;;;;5.70;4.47;;;19.10;32.50;;;;;;5040383;28;20928;-40
2022/02/13 12:10:18;;;;;;;4.77;4.27;;;19.20;31.90;;;;;;5047727;28;20664;-40
2022/02/13 12:12:44;;;;;;;9.97;5.03;;;19.20;32.80;;;;;;5040792;28;21187;-40
2022/02/13 12:15:12;;;;;;;8.67;5.43;;;19.40;31.30;;;;;;5043987;28;20828;-40
2022/02/13 12:17:37;;;;;;;7.03;4.70;;;19.20;33.10;;;;;;5039451;28;20474;-40
2022/02/13 12:20:09;;;;;;;6.67;4.40;;;19.50;32.00;;;;;;5038897;28;20884;-40
2022/02/13 12:22:34;;;;;;;10.10;4.40;;;19.80;32.20;;;;;;5040833;28;20189;-41
2022/02/13 12:25:02;;;;;;;7.07;5.37;;;20.00;32.50;;;;;;5037422;28;20544;-41
2022/02/13 12:27:28;;;;;;;4.83;4.30;;;20.30;31.60;;;;;;5036355;28;20632;-41
2022/02/13 12:30:08;;;;;;;5.53;4.40;;;20.30;30.40;;;;;;5039126;28;20559;-41
2022/02/13 12:32:38;;;;;;;8.33;5.20;;;20.20;30.00;;;;;;5041649;28;20457;-41
2022/02/13 12:35:10;;;;;;;9.43;4.90;;;20.10;30.00;;;;;;5037215;28;20445;-41
2022/02/13 12:37:44;;;;;;;4.50;3.97;;;19.90;30.10;;;;;;5040415;28;20946;-40
2022/02/13 12:40:19;;;;;;;5.97;4.73;;;19.70;31.00;;;;;;5036215;28;20447;-40
2022/02/13 12:42:46;;;;;;;7.60;5.37;;;18.90;30.30;;;;;;5040671;28;20443;-40
2022/02/13 12:45:18;;;;;;;7.20;5.30;;;19.00;31.40;;;;;;5043181;28;20890;-40
2022/02/13 12:47:58;;;;;;;6.40;5.03;;;18.90;30.60;;;;;;5045252;28;20439;-40
2022/02/13 12:50:30;;;;;;;8.57;5.13;;;18.90;31.30;;;;;;5044790;28;20547;-40